createdAt,value
2019-06-01T00:02:00.206Z,4.40
2019-06-01T00:04:28.428Z,4.33
2019-06-01T00:06:56.635Z,3.35
2019-06-01T00:09:24.860Z,3.67
2019-06-01T00:11:53.055Z,3.45
2019-06-01T00:14:21.248Z,3.52
2019-06-01T00:16:50.372Z,3.77
2019-06-01T00:19:18.679Z,3.70
2019-06-01T00:21:47.404Z,3.40
2019-06-01T00:24:15.708Z,3.70
2019-06-01T00:26:43.936Z,3.80
2019-06-01T00:29:12.147Z,3.00
2019-06-01T00:31:41.225Z,3.45
2019-06-01T00:34:09.554Z,3.00
2019-06-01T00:36:37.776Z,3.30
2019-06-01T00:39:06.443Z,3.35
2019-06-01T00:41:34.663Z,3.20
2019-06-01T00:44:02.859Z,3.52
2019-06-01T00:46:31.091Z,3.52
2019-06-01T00:48:59.284Z,3.58
2019-06-01T00:51:27.504Z,3.12
2019-06-01T00:53:55.695Z,3.47
2019-06-01T00:56:23.897Z,3.22
2019-06-01T00:58:52.123Z,2.80
2019-06-01T01:01:20.311Z,3.58
2019-06-01T01:03:48.533Z,3.00
2019-06-01T01:06:16.724Z,3.10
2019-06-01T01:08:44.974Z,3.40
2019-06-01T01:11:13.210Z,3.35
2019-06-01T01:13:41.499Z,3.20
2019-06-01T01:16:09.701Z,3.10
2019-06-01T01:18:37.920Z,3.02
2019-06-01T01:21:06.112Z,2.85
2019-06-01T01:23:34.331Z,3.12
2019-06-01T01:26:02.532Z,3.08
2019-06-01T01:28:30.743Z,2.92
2019-06-01T01:31:12.525Z,2.95
2019-06-01T01:33:28.828Z,2.98
2019-06-01T01:35:57.811Z,2.85
2019-06-01T01:38:26.052Z,2.62
2019-06-01T01:40:54.263Z,2.50
2019-06-01T01:43:22.458Z,3.00
2019-06-01T01:45:50.699Z,2.37
2019-06-01T01:48:18.883Z,3.10
2019-06-01T01:50:47.100Z,2.75
2019-06-01T01:53:15.298Z,2.67
2019-06-01T01:55:43.516Z,3.30
2019-06-01T01:58:11.721Z,2.92
2019-06-01T02:00:44.234Z,2.90
2019-06-01T02:03:12.472Z,3.17
2019-06-01T02:05:40.658Z,2.77
2019-06-01T02:08:08.893Z,2.90
2019-06-01T02:10:37.086Z,3.00
2019-06-01T02:13:05.576Z,2.40
2019-06-01T02:15:34.147Z,2.58
2019-06-01T02:18:02.906Z,2.92
2019-06-01T02:20:31.539Z,2.62
2019-06-01T02:23:00.909Z,2.25
2019-06-01T02:25:29.277Z,2.70
2019-06-01T02:27:57.505Z,2.45
2019-06-01T02:30:25.706Z,2.67
2019-06-01T02:32:53.948Z,2.55
2019-06-01T02:35:22.143Z,2.70
2019-06-01T02:37:50.364Z,2.72
2019-06-01T02:40:18.632Z,2.58
2019-06-01T02:42:47.225Z,2.77
2019-06-01T02:45:15.492Z,2.37
2019-06-01T02:47:43.696Z,2.60
2019-06-01T02:50:11.917Z,2.58
2019-06-01T02:52:40.111Z,2.80
2019-06-01T02:55:09.970Z,2.77
2019-06-01T02:57:38.173Z,2.42
2019-06-01T03:00:06.742Z,2.50
2019-06-01T03:02:35.082Z,2.67
2019-06-01T03:05:05.412Z,2.30
2019-06-01T03:07:33.808Z,2.40
2019-06-01T03:10:03.143Z,2.20
2019-06-01T03:12:31.970Z,2.27
2019-06-01T03:15:00.412Z,2.50
2019-06-01T03:17:30.688Z,2.37
2019-06-01T03:19:59.641Z,2.55
2019-06-01T03:22:28.015Z,2.52
2019-06-01T03:24:56.230Z,2.50
2019-06-01T03:27:24.436Z,2.52
2019-06-01T03:29:54.356Z,2.80
2019-06-01T03:32:35.368Z,2.22
2019-06-01T03:34:52.425Z,2.58
2019-06-01T03:37:20.688Z,2.75
2019-06-01T03:39:49.002Z,2.70
2019-06-01T03:42:17.271Z,2.70
2019-06-01T03:44:45.484Z,2.47
2019-06-01T03:47:13.683Z,2.58
2019-06-01T03:49:41.910Z,2.22
2019-06-01T03:52:10.098Z,2.60
2019-06-01T03:54:38.292Z,2.50
2019-06-01T03:57:07.279Z,2.22
2019-06-01T03:59:35.490Z,2.90
2019-06-01T04:02:05.009Z,2.55
2019-06-01T04:04:33.308Z,2.20
2019-06-01T04:07:01.538Z,2.77
2019-06-01T04:09:29.730Z,2.87
2019-06-01T04:11:57.953Z,2.30
2019-06-01T04:14:26.175Z,2.72
2019-06-01T04:16:54.375Z,2.50
2019-06-01T04:19:22.584Z,2.50
2019-06-01T04:21:50.847Z,2.75
2019-06-01T04:24:19.136Z,2.50
2019-06-01T04:26:47.335Z,2.50
2019-06-01T04:29:15.548Z,2.33
2019-06-01T04:31:43.812Z,2.35
2019-06-01T04:34:13.027Z,2.83
2019-06-01T04:36:41.432Z,2.52
2019-06-01T04:39:09.658Z,2.40
2019-06-01T04:41:37.859Z,2.20
2019-06-01T04:44:07.831Z,2.50
2019-06-01T04:46:36.160Z,2.60
2019-06-01T04:49:04.415Z,2.40
2019-06-01T04:51:32.751Z,2.47
2019-06-01T04:54:00.936Z,2.10
2019-06-01T04:56:29.224Z,2.50
2019-06-01T04:58:57.428Z,2.27
2019-06-01T05:01:25.712Z,2.45
2019-06-01T05:03:53.911Z,2.77
2019-06-01T05:06:22.145Z,2.20
2019-06-01T05:08:50.335Z,2.10
2019-06-01T05:11:18.528Z,2.40
2019-06-01T05:13:46.751Z,1.98
2019-06-01T05:16:16.463Z,2.52
2019-06-01T05:18:44.846Z,2.25
2019-06-01T05:21:13.097Z,2.10
2019-06-01T05:23:41.435Z,2.60
2019-06-01T05:26:10.879Z,2.47
2019-06-01T05:28:39.271Z,1.85
2019-06-01T05:31:09.738Z,2.40
2019-06-01T05:33:37.823Z,2.30
2019-06-01T05:36:06.221Z,2.20
2019-06-01T05:38:34.443Z,2.08
2019-06-01T05:41:02.663Z,2.00
2019-06-01T05:43:30.884Z,2.10
2019-06-01T05:45:59.099Z,2.10
2019-06-01T05:48:30.550Z,1.95
2019-06-01T05:50:57.172Z,2.02
2019-06-01T05:53:25.367Z,1.60
2019-06-01T05:55:53.588Z,1.90
2019-06-01T05:58:21.867Z,1.70
2019-06-01T06:00:50.095Z,1.80
2019-06-01T06:03:21.779Z,1.75
2019-06-01T06:05:48.240Z,1.87
2019-06-01T06:08:16.427Z,1.60
2019-06-01T06:10:44.939Z,1.80
2019-06-01T06:13:17.350Z,1.60
2019-06-01T06:15:45.736Z,1.87
2019-06-01T06:18:13.942Z,3.12
2019-06-01T06:20:42.159Z,1.77
2019-06-01T06:23:10.364Z,1.72
2019-06-01T06:25:41.044Z,1.40
2019-06-01T06:28:08.433Z,1.40
2019-06-01T06:30:36.666Z,1.77
2019-06-01T06:33:04.860Z,3.10
2019-06-01T06:35:33.067Z,1.65
2019-06-01T06:38:01.291Z,1.52
2019-06-01T06:40:29.489Z,1.50
2019-06-01T06:42:57.773Z,1.32
2019-06-01T06:45:25.906Z,1.92
2019-06-01T06:47:54.133Z,1.70
2019-06-01T06:50:23.446Z,1.70
2019-06-01T06:52:51.862Z,1.70
2019-06-01T06:55:20.127Z,1.20
2019-06-01T06:57:48.289Z,1.65
2019-06-01T07:00:16.738Z,1.55
2019-06-01T07:02:44.956Z,1.52
2019-06-01T07:05:13.165Z,1.60
2019-06-01T07:07:41.362Z,1.20
2019-06-01T07:10:09.572Z,1.42
2019-06-01T07:12:37.800Z,1.32
2019-06-01T07:15:06.165Z,1.20
2019-06-01T07:17:34.469Z,1.20
2019-06-01T07:20:03.123Z,1.45
2019-06-01T07:22:32.135Z,1.60
2019-06-01T07:25:00.445Z,1.50
2019-06-01T07:27:28.668Z,1.27
2019-06-01T07:29:56.891Z,1.12
2019-06-01T07:32:26.596Z,1.42
2019-06-01T07:34:54.903Z,1.50
2019-06-01T07:37:24.346Z,1.35
2019-06-01T07:39:52.619Z,1.10
2019-06-01T07:42:24.441Z,1.40
2019-06-01T07:44:50.732Z,1.27
2019-06-01T07:47:18.908Z,1.22
2019-06-01T07:49:47.135Z,1.25
2019-06-01T07:52:15.327Z,1.22
2019-06-01T07:54:43.543Z,1.40
2019-06-01T07:57:11.738Z,1.10
2019-06-01T07:59:39.960Z,1.30
2019-06-01T08:02:08.175Z,1.30
2019-06-01T08:04:52.938Z,1.50
2019-06-01T08:07:06.446Z,1.25
2019-06-01T08:09:34.634Z,1.00
2019-06-01T08:12:02.998Z,1.20
2019-06-01T08:14:31.171Z,1.25
2019-06-01T08:16:59.391Z,1.20
2019-06-01T08:19:28.034Z,1.30
2019-06-01T08:21:56.491Z,1.20
2019-06-01T08:24:24.679Z,1.32
2019-06-01T08:26:52.968Z,1.30
2019-06-01T08:29:22.509Z,0.90
2019-06-01T08:31:55.644Z,1.52
2019-06-01T08:34:20.767Z,1.20
2019-06-01T08:36:48.964Z,1.85
2019-06-01T08:39:17.179Z,1.30
2019-06-01T08:41:45.375Z,1.50
2019-06-01T08:44:13.607Z,1.15
2019-06-01T08:46:41.799Z,1.37
2019-06-01T08:49:10.066Z,1.40
2019-06-01T08:51:38.255Z,1.35
2019-06-01T08:54:06.480Z,1.22
2019-06-01T08:56:34.678Z,1.10
2019-06-01T08:59:03.121Z,1.37
2019-06-01T09:01:32.662Z,0.90
2019-06-01T09:04:01.029Z,1.30
2019-06-01T09:06:29.259Z,1.22
2019-06-01T09:08:57.459Z,1.35
2019-06-01T09:11:26.946Z,1.00
2019-06-01T09:13:55.287Z,0.78
2019-06-01T09:16:23.509Z,1.15
2019-06-01T09:18:51.705Z,1.40
2019-06-01T09:21:20.006Z,1.02
2019-06-01T09:23:48.192Z,0.88
2019-06-01T09:26:16.412Z,1.27
2019-06-01T09:28:44.602Z,1.00
2019-06-01T09:31:12.838Z,1.12
2019-06-01T09:33:41.100Z,1.05
2019-06-01T09:36:09.320Z,1.10
2019-06-01T09:38:37.890Z,0.90
2019-06-01T09:41:06.138Z,1.00
2019-06-01T09:43:34.980Z,1.22
2019-06-01T09:46:03.258Z,0.93
2019-06-01T09:48:31.511Z,0.75
2019-06-01T09:50:59.676Z,0.82
2019-06-01T09:53:29.396Z,0.78
2019-06-01T09:55:57.766Z,0.85
2019-06-01T09:58:26.036Z,0.70
2019-06-01T10:00:54.173Z,0.70
2019-06-01T10:03:22.394Z,1.00
2019-06-01T10:06:01.315Z,1.15
2019-06-01T10:08:20.500Z,1.10
2019-06-01T10:10:48.687Z,0.85
2019-06-01T10:13:16.915Z,1.02
2019-06-01T10:15:45.135Z,1.00
2019-06-01T10:18:13.332Z,0.88
2019-06-01T10:20:41.544Z,0.72
2019-06-01T10:23:09.767Z,0.95
2019-06-01T10:25:38.551Z,0.82
2019-06-01T10:28:06.894Z,1.00
2019-06-01T10:30:35.816Z,0.98
2019-06-01T10:33:04.284Z,1.07
2019-06-01T10:35:32.775Z,1.10
2019-06-01T10:38:01.140Z,0.90
2019-06-01T10:40:29.363Z,0.68
2019-06-01T10:42:57.564Z,1.10
2019-06-01T10:45:25.829Z,1.20
2019-06-01T10:47:53.998Z,1.07
2019-06-01T10:50:22.223Z,1.12
2019-06-01T10:52:50.417Z,1.30
2019-06-01T10:55:18.671Z,1.05
2019-06-01T10:57:46.908Z,1.30
2019-06-01T11:00:15.131Z,1.50
2019-06-01T11:02:43.464Z,1.30
2019-06-01T11:05:11.777Z,1.10
2019-06-01T11:07:41.030Z,1.22
2019-06-01T11:10:09.736Z,1.55
2019-06-01T11:12:39.143Z,1.30
2019-06-01T11:15:10.174Z,1.10
2019-06-01T11:17:39.268Z,1.20
2019-06-01T11:20:07.774Z,1.30
2019-06-01T11:22:35.976Z,1.17
2019-06-01T11:25:04.794Z,1.10
2019-06-01T11:27:33.539Z,1.30
2019-06-01T11:30:01.997Z,1.10
2019-06-01T11:32:30.234Z,1.32
2019-06-01T11:34:58.480Z,1.35
2019-06-01T11:37:26.708Z,1.10
2019-06-01T11:39:54.890Z,1.30
2019-06-01T11:42:23.112Z,1.22
2019-06-01T11:44:51.303Z,1.42
2019-06-01T11:47:19.533Z,1.37
2019-06-01T11:49:47.727Z,1.47
2019-06-01T11:52:16.019Z,1.37
2019-06-01T11:54:45.344Z,1.20
2019-06-01T11:57:13.743Z,1.00
2019-06-01T11:59:41.971Z,1.70
2019-06-01T12:02:10.200Z,1.65
2019-06-01T12:04:39.714Z,1.70
2019-06-01T12:07:17.667Z,0.95
2019-06-01T12:09:38.017Z,1.30
2019-06-01T12:12:06.328Z,1.30
2019-06-01T12:14:34.520Z,1.40
2019-06-01T12:17:02.739Z,1.20
2019-06-01T12:19:30.935Z,1.42
2019-06-01T12:21:59.162Z,1.30
2019-06-01T12:24:27.470Z,1.25
2019-06-01T12:26:55.775Z,1.25
2019-06-01T12:29:24.837Z,1.50
2019-06-01T12:31:53.136Z,1.25
2019-06-01T12:34:21.336Z,1.47
2019-06-01T12:36:49.623Z,1.60
2019-06-01T12:39:17.817Z,1.30
2019-06-01T12:41:46.067Z,1.67
2019-06-01T12:44:14.601Z,1.40
2019-06-01T12:46:43.839Z,1.40
2019-06-01T12:49:12.103Z,1.17
2019-06-01T12:51:40.658Z,1.30
2019-06-01T12:54:08.956Z,1.45
2019-06-01T12:56:37.175Z,1.65
2019-06-01T12:59:05.383Z,1.22
2019-06-01T13:01:33.633Z,1.22
2019-06-01T13:04:01.801Z,1.35
2019-06-01T13:06:30.093Z,1.40
2019-06-01T13:08:58.317Z,1.35
2019-06-01T13:11:26.523Z,1.27
2019-06-01T13:13:54.762Z,1.50
2019-06-01T13:16:22.980Z,1.50
2019-06-01T13:18:51.760Z,1.45
2019-06-01T13:21:20.026Z,1.30
2019-06-01T13:23:49.537Z,1.47
2019-06-01T13:26:17.914Z,2.05
2019-06-01T13:28:46.179Z,1.37
2019-06-01T13:31:14.340Z,1.80
2019-06-01T13:33:42.574Z,1.60
2019-06-01T13:36:10.767Z,1.80
2019-06-01T13:38:38.988Z,2.02
2019-06-01T13:41:07.279Z,1.62
2019-06-01T13:43:35.549Z,1.50
2019-06-01T13:46:06.442Z,1.77
2019-06-01T13:48:34.020Z,1.60
2019-06-01T13:51:02.284Z,1.77
2019-06-01T13:53:30.495Z,1.60
2019-06-01T13:55:58.691Z,1.42
2019-06-01T13:58:27.024Z,1.67
2019-06-01T14:00:55.218Z,1.77
2019-06-01T14:03:23.437Z,1.70
2019-06-01T14:05:51.634Z,1.67
2019-06-01T14:08:28.811Z,1.70
2019-06-01T14:10:49.691Z,1.82
2019-06-01T14:13:17.915Z,1.57
2019-06-01T14:15:47.308Z,1.85
2019-06-01T14:18:15.622Z,1.72
2019-06-01T14:20:43.843Z,1.67
2019-06-01T14:23:12.536Z,3.15
2019-06-01T14:25:40.731Z,1.62
2019-06-01T14:28:08.950Z,1.85
2019-06-01T14:30:37.436Z,1.70
2019-06-01T14:33:05.790Z,1.50
2019-06-01T14:35:35.861Z,1.52
2019-06-01T14:38:03.864Z,1.92
2019-06-01T14:40:32.099Z,1.67
2019-06-01T14:43:00.299Z,1.90
2019-06-01T14:45:28.519Z,1.75
2019-06-01T14:47:57.668Z,2.00
2019-06-01T14:50:25.942Z,2.17
2019-06-01T14:52:54.135Z,1.70
2019-06-01T14:55:22.355Z,1.47
2019-06-01T14:57:52.307Z,1.92
2019-06-01T15:00:20.435Z,1.87
2019-06-01T15:02:48.630Z,1.92
2019-06-01T15:05:16.845Z,1.60
2019-06-01T15:07:45.037Z,1.70
2019-06-01T15:10:13.924Z,1.60
2019-06-01T15:12:42.125Z,1.80
2019-06-01T15:15:11.418Z,1.82
2019-06-01T15:17:39.702Z,2.00
2019-06-01T15:20:07.991Z,2.17
2019-06-01T15:22:36.183Z,1.62
2019-06-01T15:25:06.031Z,1.62
2019-06-01T15:27:34.350Z,1.60
2019-06-01T15:30:03.260Z,1.75
2019-06-01T15:32:31.511Z,1.87
2019-06-01T15:35:00.025Z,1.95
2019-06-01T15:37:28.253Z,1.80
2019-06-01T15:39:56.776Z,2.17
2019-06-01T15:42:25.090Z,2.08
2019-06-01T15:44:53.311Z,2.10
2019-06-01T15:47:21.544Z,2.17
2019-06-01T15:49:49.735Z,2.02
2019-06-01T15:52:19.060Z,2.20
2019-06-01T15:54:47.424Z,1.85
2019-06-01T15:57:15.748Z,1.87
2019-06-01T15:59:47.661Z,1.60
2019-06-01T16:02:20.649Z,1.80
2019-06-01T16:04:49.980Z,2.27
2019-06-01T16:07:18.342Z,3.10
2019-06-01T16:09:46.503Z,2.80
2019-06-01T16:12:15.012Z,1.98
2019-06-01T16:14:43.262Z,2.12
2019-06-01T16:17:11.913Z,2.00
2019-06-01T16:19:40.173Z,2.20
2019-06-01T16:22:08.395Z,2.00
2019-06-01T16:24:36.584Z,1.65
2019-06-01T16:27:04.967Z,2.33
2019-06-01T16:29:34.620Z,2.05
2019-06-01T16:32:03.089Z,1.92
2019-06-01T16:34:31.506Z,1.95
2019-06-01T16:37:01.083Z,1.90
2019-06-01T16:39:29.402Z,1.80
2019-06-01T16:41:57.744Z,2.22
2019-06-01T16:44:26.023Z,1.80
2019-06-01T16:46:55.489Z,1.82
2019-06-01T16:49:27.116Z,2.37
2019-06-01T16:52:01.433Z,2.52
2019-06-01T16:54:30.016Z,7.03
2019-06-01T16:56:58.216Z,2.58
2019-06-01T16:59:26.509Z,2.83
2019-06-01T17:01:54.725Z,2.40
2019-06-01T17:04:22.921Z,1.80
2019-06-01T17:06:51.146Z,1.98
2019-06-01T17:09:19.340Z,2.02
2019-06-01T17:11:47.564Z,1.80
2019-06-01T17:14:15.796Z,1.72
2019-06-01T17:16:44.056Z,1.77
2019-06-01T17:19:12.252Z,2.00
2019-06-01T17:21:40.467Z,2.08
2019-06-01T17:24:08.691Z,1.90
2019-06-01T17:26:36.888Z,1.98
2019-06-01T17:29:06.165Z,2.00
2019-06-01T17:31:34.408Z,1.90
2019-06-01T17:34:02.700Z,2.10
2019-06-01T17:36:30.905Z,1.82
2019-06-01T17:38:59.816Z,1.60
2019-06-01T17:41:28.104Z,2.02
2019-06-01T17:43:56.326Z,2.40
2019-06-01T17:46:24.518Z,1.77
2019-06-01T17:48:52.754Z,2.70
2019-06-01T17:51:21.110Z,1.57
2019-06-01T17:53:53.297Z,1.55
2019-06-01T17:56:20.758Z,1.85
2019-06-01T17:58:48.979Z,1.72
2019-06-01T18:01:17.178Z,1.50
2019-06-01T18:03:45.427Z,1.50
2019-06-01T18:06:13.630Z,1.50
2019-06-01T18:08:41.855Z,1.57
2019-06-01T18:11:10.153Z,2.17
2019-06-01T18:13:38.372Z,1.95
2019-06-01T18:16:06.648Z,1.70
2019-06-01T18:18:34.867Z,1.70
2019-06-01T18:21:04.110Z,2.10
2019-06-01T18:23:32.480Z,1.72
2019-06-01T18:26:00.676Z,1.77
2019-06-01T18:28:29.070Z,1.80
2019-06-01T18:30:57.339Z,1.82
2019-06-01T18:33:25.565Z,2.10
2019-06-01T18:35:53.867Z,1.98
2019-06-01T18:38:22.091Z,2.20
2019-06-01T18:40:50.281Z,2.20
2019-06-01T18:43:18.507Z,2.00
2019-06-01T18:45:46.699Z,2.27
2019-06-01T18:48:15.099Z,2.17
2019-06-01T18:50:43.284Z,1.90
2019-06-01T18:53:12.172Z,1.90
2019-06-01T18:55:40.421Z,2.02
2019-06-01T18:58:08.612Z,1.92
2019-06-01T19:00:39.770Z,2.50
2019-06-01T19:03:07.207Z,2.40
2019-06-01T19:05:35.581Z,2.00
2019-06-01T19:08:05.021Z,2.10
2019-06-01T19:10:33.364Z,2.37
2019-06-01T19:13:01.556Z,2.50
2019-06-01T19:15:29.776Z,2.20
2019-06-01T19:17:57.976Z,2.10
2019-06-01T19:20:26.192Z,2.30
2019-06-01T19:22:54.510Z,1.80
2019-06-01T19:25:22.730Z,2.10
2019-06-01T19:27:50.918Z,2.50
2019-06-01T19:30:23.710Z,2.40
2019-06-01T19:32:51.906Z,2.52
2019-06-01T19:35:20.146Z,2.05
2019-06-01T19:37:48.372Z,2.37
2019-06-01T19:40:18.218Z,2.42
2019-06-01T19:42:46.435Z,2.60
2019-06-01T19:45:25.853Z,2.45
2019-06-01T19:47:44.535Z,2.45
2019-06-01T19:50:12.727Z,2.35
2019-06-01T19:52:40.950Z,2.55
2019-06-01T19:55:09.148Z,3.40
2019-06-01T19:57:37.359Z,2.47
2019-06-01T20:00:06.156Z,3.70
2019-06-01T20:02:34.637Z,5.03
2019-06-01T20:05:03.020Z,5.72
2019-06-01T20:07:31.240Z,5.50
2019-06-01T20:09:59.531Z,5.00
2019-06-01T20:12:27.731Z,6.00
2019-06-01T20:14:55.948Z,5.28
2019-06-01T20:17:26.400Z,5.28
2019-06-01T20:19:54.028Z,4.60
2019-06-01T20:22:22.217Z,4.70
2019-06-01T20:24:50.450Z,4.80
2019-06-01T20:27:19.534Z,4.35
2019-06-01T20:29:47.793Z,4.92
2019-06-01T20:32:16.001Z,7.05
2019-06-01T20:34:44.235Z,6.75
2019-06-01T20:37:12.508Z,8.63
2019-06-01T20:39:40.737Z,9.05
2019-06-01T20:42:21.081Z,8.38
2019-06-01T20:44:38.820Z,8.40
2019-06-01T20:47:07.026Z,7.80
2019-06-01T20:49:35.275Z,7.45
2019-06-01T20:52:03.810Z,8.10
2019-06-01T20:54:32.054Z,7.55
2019-06-01T20:57:00.247Z,7.97
2019-06-01T20:59:28.480Z,6.70
2019-06-01T21:01:56.679Z,6.67
2019-06-01T21:04:24.919Z,5.80
2019-06-01T21:06:53.131Z,5.53
2019-06-01T21:09:22.088Z,5.50
2019-06-01T21:11:50.242Z,6.62
2019-06-01T21:14:18.440Z,6.65
2019-06-01T21:16:46.664Z,6.08
2019-06-01T21:19:16.173Z,6.22
2019-06-01T21:21:44.504Z,7.05
2019-06-01T21:24:12.708Z,7.40
2019-06-01T21:26:40.922Z,6.50
2019-06-01T21:29:09.117Z,6.28
2019-06-01T21:31:37.339Z,6.80
2019-06-01T21:34:05.538Z,7.35
2019-06-01T21:36:33.758Z,7.17
2019-06-01T21:39:02.007Z,7.55
2019-06-01T21:41:30.188Z,6.72
2019-06-01T21:43:58.379Z,7.03
2019-06-01T21:46:26.592Z,7.03
2019-06-01T21:48:54.800Z,7.10
2019-06-01T21:51:24.039Z,7.30
2019-06-01T21:53:52.348Z,8.08
2019-06-01T21:56:22.128Z,7.33
2019-06-01T21:58:50.499Z,7.95
2019-06-01T22:01:18.696Z,6.42
2019-06-01T22:03:46.916Z,6.95
2019-06-01T22:06:15.116Z,7.00
2019-06-01T22:08:52.181Z,7.47
2019-06-01T22:11:13.184Z,7.33
2019-06-01T22:13:41.409Z,6.90
2019-06-01T22:16:09.605Z,7.05
2019-06-01T22:18:37.835Z,7.28
2019-06-01T22:21:06.036Z,7.47
2019-06-01T22:23:34.252Z,7.05
2019-06-01T22:26:02.452Z,6.85
2019-06-01T22:28:30.671Z,7.00
2019-06-01T22:30:58.905Z,6.55
2019-06-01T22:33:27.087Z,6.92
2019-06-01T22:35:55.308Z,6.12
2019-06-01T22:38:23.796Z,7.17
2019-06-01T22:40:52.123Z,6.62
2019-06-01T22:43:36.807Z,6.78
2019-06-01T22:45:50.204Z,7.30
2019-06-01T22:48:18.660Z,7.12
2019-06-01T22:50:46.888Z,7.42
2019-06-01T22:53:15.134Z,7.20
2019-06-01T22:55:43.361Z,6.95
2019-06-01T22:58:11.552Z,7.22
2019-06-01T23:00:39.779Z,7.72
2019-06-01T23:03:08.048Z,6.83
2019-06-01T23:05:36.271Z,6.70
2019-06-01T23:08:04.548Z,6.87
2019-06-01T23:10:35.417Z,7.22
2019-06-01T23:13:02.775Z,6.70
2019-06-01T23:15:31.935Z,7.12
2019-06-01T23:18:00.274Z,6.65
2019-06-01T23:20:28.541Z,6.28
2019-06-01T23:22:56.759Z,7.67
2019-06-01T23:25:24.962Z,6.70
2019-06-01T23:27:53.176Z,7.10
2019-06-01T23:30:22.013Z,6.97
2019-06-01T23:32:50.311Z,7.00
2019-06-01T23:35:18.499Z,7.28
2019-06-01T23:37:46.720Z,7.17
2019-06-01T23:40:14.910Z,6.20
2019-06-01T23:42:43.317Z,6.92
2019-06-01T23:45:11.515Z,7.35
2019-06-01T23:47:39.737Z,7.25
2019-06-01T23:50:07.936Z,7.45
2019-06-01T23:52:36.164Z,7.05
2019-06-01T23:55:07.085Z,7.20
2019-06-01T23:57:35.294Z,6.60
